Time;durP1;ratioP1;P1;durP2;ratioP2;P2;SDS_P1;SDS_P2;PMS_P1;PMS_P2;Temp;Humidity;BMP_temperature;BMP_pressure;BME280_temperature;BME280_humidity;BME280_pressure;Samples;Min_cycle;Max_cycle;Signal;HPM_P1;HPM_P2
2023/10/30 00:01:09;;;;;;;;;;;12.20;99.90;;;;;;7322668;19;9533;-85
2023/10/30 00:03:37;;;;;;;;;;;12.20;99.90;;;;;;7319972;19;9335;-85
2023/10/30 00:06:16;;;;;;;;;;;12.10;99.90;;;;;;7322430;19;9615;-85
2023/10/30 00:08:45;;;;;;;;;;;12.10;99.90;;;;;;7319944;19;9221;-85
2023/10/30 00:11:14;;;;;;;;;;;12.10;99.90;;;;;;7322152;19;9221;-86
2023/10/30 00:13:43;;;;;;;;;;;12.00;99.90;;;;;;7319684;19;9200;-84
2023/10/30 00:16:13;;;;;;;;;;;11.90;99.90;;;;;;7322676;19;10812;-84
2023/10/30 00:18:42;;;;;;;;;;;11.80;99.90;;;;;;7316288;19;9262;-85
2023/10/30 00:21:11;;;;;;;;;;;11.70;99.90;;;;;;7319269;19;9289;-85
2023/10/30 00:23:43;;;;;;;;;;;11.70;99.90;;;;;;7320124;19;9294;-85
2023/10/30 00:26:12;;;;;;;;;;;11.70;99.90;;;;;;7320972;19;9250;-85
2023/10/30 00:28:41;;;;;;;;;;;11.80;99.90;;;;;;7318161;19;9233;-85
2023/10/30 00:31:10;;;;;;;;;;;11.70;99.90;;;;;;7319867;19;9236;-85
2023/10/30 00:33:39;;;;;;;;;;;11.60;99.90;;;;;;7317333;19;9492;-85
2023/10/30 00:36:08;;;;;;;;;;;11.70;99.90;;;;;;7316778;19;9481;-84
2023/10/30 00:38:37;;;;;;;;;;;11.60;99.90;;;;;;7317707;19;9480;-85
2023/10/30 00:41:10;;;;;;;;;;;11.60;99.90;;;;;;7315689;19;9213;-85
2023/10/30 00:43:40;;;;;;;;;;;11.60;99.90;;;;;;7316710;19;9312;-84
2023/10/30 00:46:09;;;;;;;;;;;11.50;99.90;;;;;;7320306;19;10362;-85
2023/10/30 00:48:38;;;;;;;;;;;11.50;99.90;;;;;;7320158;19;9493;-86
2023/10/30 00:51:07;;;;;;;;;;;11.40;99.90;;;;;;7317521;19;9292;-85
2023/10/30 00:53:36;;;;;;;;;;;11.20;99.90;;;;;;7319509;19;9364;-85
2023/10/30 00:56:09;;;;;;;;;;;11.10;99.90;;;;;;7318234;19;9427;-85
2023/10/30 00:58:38;;;;;;;;;;;11.00;99.90;;;;;;7318039;19;9720;-84
2023/10/30 01:01:07;;;;;;;;;;;11.00;99.90;;;;;;7313996;19;9591;-85
2023/10/30 01:03:38;;;;;;;;;;;11.00;99.90;;;;;;7317663;19;9199;-85
2023/10/30 01:06:08;;;;;;;;;;;11.00;99.90;;;;;;7318986;19;9462;-85
2023/10/30 01:08:37;;;;;;;;;;;10.90;99.90;;;;;;7318949;19;9235;-85
2023/10/30 01:11:09;;;;;;;;;;;10.90;99.90;;;;;;7315983;19;9315;-85
2023/10/30 01:13:37;;;;;;;;;;;10.80;99.90;;;;;;7318193;19;9214;-85
2023/10/30 01:16:07;;;;;;;;;;;10.80;99.90;;;;;;7315932;19;11206;-85
2023/10/30 01:18:37;;;;;;;;;;;10.70;99.90;;;;;;7317986;19;9799;-85
2023/10/30 01:21:11;;;;;;;;;;;10.60;99.90;;;;;;7317907;19;9608;-85
2023/10/30 01:23:40;;;;;;;;;;;10.70;99.90;;;;;;7317752;19;9186;-85
2023/10/30 01:26:11;;;;;;;;;;;10.70;99.90;;;;;;7318042;19;9350;-85
2023/10/30 01:28:40;;;;;;;;;;;10.70;99.90;;;;;;7315993;19;9383;-85
2023/10/30 01:31:09;;;;;;;;;;;10.80;99.90;;;;;;7316137;19;10550;-86
2023/10/30 01:33:38;;;;;;;;;;;10.80;99.90;;;;;;7318357;19;9246;-85
2023/10/30 01:36:08;;;;;;;;;;;10.90;99.90;;;;;;7315158;19;9099;-85
2023/10/30 01:38:37;;;;;;;;;;;10.80;99.90;;;;;;7317099;19;9251;-86
2023/10/30 01:41:06;;;;;;;;;;;10.70;99.90;;;;;;7315634;19;9120;-85
2023/10/30 01:43:38;;;;;;;;;;;10.80;99.90;;;;;;7319505;19;9292;-84
2023/10/30 01:46:08;;;;;;;;;;;10.70;99.90;;;;;;7317109;19;9527;-85
2023/10/30 01:48:38;;;;;;;;;;;10.70;99.90;;;;;;7313960;19;9431;-85
2023/10/30 01:51:10;;;;;;;;;;;10.80;99.90;;;;;;7315716;19;9462;-85
2023/10/30 01:53:40;;;;;;;;;;;10.70;99.90;;;;;;7318453;19;9458;-85
2023/10/30 01:56:10;;;;;;;;;;;10.70;99.90;;;;;;7314785;19;9290;-85
2023/10/30 01:58:42;;;;;;;;;;;10.80;99.90;;;;;;7318581;19;9441;-85
2023/10/30 02:01:14;;;;;;;;;;;10.80;99.90;;;;;;7317730;19;9249;-85
2023/10/30 02:03:43;;;;;;;;;;;10.80;99.90;;;;;;7315719;19;9480;-85
2023/10/30 02:06:12;;;;;;;;;;;10.90;99.90;;;;;;7314725;19;9210;-85
2023/10/30 02:08:41;;;;;;;;;;;10.90;99.90;;;;;;7314300;19;9552;-85
2023/10/30 02:11:10;;;;;;;;;;;10.80;99.90;;;;;;7316220;19;11735;-85
2023/10/30 02:13:41;;;;;;;;;;;10.80;99.90;;;;;;7316951;19;9146;-85
2023/10/30 02:16:11;;;;;;;;;;;10.80;99.90;;;;;;7318259;19;9588;-85
2023/10/30 02:18:40;;;;;;;;;;;10.80;99.90;;;;;;7316046;19;10174;-85
2023/10/30 02:21:11;;;;;;;;;;;10.70;99.90;;;;;;7313550;19;9435;-85
2023/10/30 02:23:40;;;;;;;;;;;10.90;99.90;;;;;;7314697;19;9186;-85
2023/10/30 02:26:11;;;;;;;;;;;11.00;99.90;;;;;;7319891;19;9362;-85
2023/10/30 02:28:40;;;;;;;;;;;11.00;99.90;;;;;;7318284;19;9251;-85
2023/10/30 02:31:09;;;;;;;;;;;11.10;99.90;;;;;;7322310;19;9230;-85
2023/10/30 02:33:38;;;;;;;;;;;11.10;99.90;;;;;;7319038;19;9131;-85
2023/10/30 02:36:08;;;;;;;;;;;11.20;99.90;;;;;;7319081;19;10349;-85
2023/10/30 02:38:37;;;;;;;;;;;11.10;99.90;;;;;;7316450;19;9468;-85
2023/10/30 02:41:06;;;;;;;;;;;11.10;99.90;;;;;;7316528;19;9139;-85
2023/10/30 02:43:37;;;;;;;;;;;11.20;99.90;;;;;;7311593;19;9158;-84
2023/10/30 02:46:07;;;;;;;;;;;11.10;99.90;;;;;;7317012;19;10443;-85
2023/10/30 02:48:36;;;;;;;;;;;11.10;99.90;;;;;;7315887;19;9344;-83
2023/10/30 02:51:05;;;;;;;;;;;11.00;99.90;;;;;;7316325;19;8988;-84
2023/10/30 02:53:34;;;;;;;;;;;10.90;99.90;;;;;;7311763;19;10861;-84
2023/10/30 02:56:03;;;;;;;;;;;10.80;99.90;;;;;;7309509;19;9382;-85
2023/10/30 02:58:33;;;;;;;;;;;10.80;99.90;;;;;;7316632;19;10256;-84
2023/10/30 03:01:05;;;;;;;;;;;10.60;99.90;;;;;;7311436;19;9266;-84
2023/10/30 03:03:35;;;;;;;;;;;10.50;99.90;;;;;;7316111;19;9304;-84
2023/10/30 03:06:04;;;;;;;;;;;10.50;99.90;;;;;;7315120;19;9521;-84
2023/10/30 03:08:33;;;;;;;;;;;10.50;99.90;;;;;;7314724;19;9150;-84
2023/10/30 03:11:02;;;;;;;;;;;10.40;99.90;;;;;;7313313;19;10720;-85
2023/10/30 03:13:31;;;;;;;;;;;10.40;99.90;;;;;;7315404;19;9225;-85
2023/10/30 03:15:59;;;;;;;;;;;10.40;99.90;;;;;;7314580;19;9233;-85
2023/10/30 03:18:31;;;;;;;;;;;10.40;99.90;;;;;;7311856;19;9992;-85
2023/10/30 03:21:00;;;;;;;;;;;10.40;99.90;;;;;;7311913;19;9255;-84
2023/10/30 03:23:29;;;;;;;;;;;10.30;99.90;;;;;;7315225;19;9340;-84
2023/10/30 03:25:59;;;;;;;;;;;10.30;99.90;;;;;;7315529;19;9258;-85
2023/10/30 03:28:28;;;;;;;;;;;10.40;99.90;;;;;;7315495;19;10321;-84
2023/10/30 03:30:57;;;;;;;;;;;10.70;99.90;;;;;;7314825;19;9273;-84
2023/10/30 03:33:26;;;;;;;;;;;10.70;99.90;;;;;;7314935;19;10375;-84
2023/10/30 03:35:57;;;;;;;;;;;10.70;99.90;;;;;;7315658;19;9290;-84
2023/10/30 03:38:26;;;;;;;;;;;10.70;99.90;;;;;;7309563;19;10717;-84
2023/10/30 03:40:55;;;;;;;;;;;10.80;99.90;;;;;;7316950;19;10593;-84
2023/10/30 03:43:24;;;;;;;;;;;10.80;99.90;;;;;;7321244;19;9537;-85
2023/10/30 03:45:53;;;;;;;;;;;10.80;99.90;;;;;;7322892;19;9212;-84
2023/10/30 03:48:24;;;;;;;;;;;10.90;99.90;;;;;;7320860;19;9306;-84
2023/10/30 03:50:53;;;;;;;;;;;10.90;99.90;;;;;;7318755;19;9214;-84
2023/10/30 03:53:25;;;;;;;;;;;11.00;99.90;;;;;;7316876;19;9678;-84
2023/10/30 03:55:54;;;;;;;;;;;11.00;99.90;;;;;;7321144;19;9150;-84
2023/10/30 03:58:22;;;;;;;;;;;11.00;99.90;;;;;;7320804;19;9837;-84
2023/10/30 04:00:52;;;;;;;;;;;10.90;99.90;;;;;;7319555;19;9129;-84
2023/10/30 04:03:21;;;;;;;;;;;10.80;99.90;;;;;;7321430;19;9535;-85
2023/10/30 04:05:50;;;;;;;;;;;10.80;99.90;;;;;;7319535;19;9241;-84
2023/10/30 04:08:19;;;;;;;;;;;10.90;99.90;;;;;;7320756;19;9580;-84
2023/10/30 04:10:51;;;;;;;;;;;10.70;99.90;;;;;;7316514;19;9245;-85
2023/10/30 04:13:20;;;;;;;;;;;10.70;99.90;;;;;;7322048;19;9472;-85
2023/10/30 04:15:50;;;;;;;;;;;10.70;99.90;;;;;;7319013;19;9204;-84
2023/10/30 04:18:19;;;;;;;;;;;10.70;99.90;;;;;;7319098;19;9256;-85
2023/10/30 04:20:48;;;;;;;;;;;10.90;99.90;;;;;;7317542;19;9266;-84
2023/10/30 04:23:17;;;;;;;;;;;10.90;99.90;;;;;;7321213;19;9385;-84
2023/10/30 04:25:46;;;;;;;;;;;11.00;99.90;;;;;;7320717;19;9260;-85
2023/10/30 04:28:17;;;;;;;;;;;11.00;99.90;;;;;;7318922;19;9509;-84
2023/10/30 04:30:46;;;;;;;;;;;11.10;99.90;;;;;;7320749;19;9794;-85
2023/10/30 04:33:15;;;;;;;;;;;11.20;99.90;;;;;;7318934;19;9313;-84
2023/10/30 04:35:44;;;;;;;;;;;11.10;99.90;;;;;;7318534;19;9250;-85
2023/10/30 04:38:13;;;;;;;;;;;11.00;99.90;;;;;;7319912;19;9635;-85
2023/10/30 04:40:42;;;;;;;;;;;11.00;99.90;;;;;;7318186;19;9167;-84
2023/10/30 04:43:11;;;;;;;;;;;11.00;99.90;;;;;;7319877;19;9269;-84
2023/10/30 04:45:42;;;;;;;;;;;11.10;99.90;;;;;;7317900;19;10396;-84
2023/10/30 04:48:11;;;;;;;;;;;11.20;99.90;;;;;;7319341;19;9257;-84
2023/10/30 04:50:40;;;;;;;;;;;11.20;99.90;;;;;;7318711;19;9179;-84
2023/10/30 04:53:09;;;;;;;;;;;11.20;99.90;;;;;;7320324;19;9356;-84
2023/10/30 04:55:38;;;;;;;;;;;11.30;99.90;;;;;;7316962;19;9622;-84
2023/10/30 04:58:07;;;;;;;;;;;11.30;99.90;;;;;;7318965;19;9253;-84
2023/10/30 05:00:36;;;;;;;;;;;11.30;99.90;;;;;;7316840;19;9465;-84
2023/10/30 05:03:08;;;;;;;;;;;11.20;99.90;;;;;;7320191;19;11164;-84
2023/10/30 05:05:38;;;;;;;;;;;11.20;99.90;;;;;;7318792;19;9390;-85
2023/10/30 05:08:07;;;;;;;;;;;11.10;99.90;;;;;;7318126;19;9365;-84
2023/10/30 05:10:36;;;;;;;;;;;11.20;99.90;;;;;;7318104;19;9571;-85
2023/10/30 05:13:05;;;;;;;;;;;11.10;99.90;;;;;;7318823;19;9319;-85
2023/10/30 05:15:34;;;;;;;;;;;11.00;99.90;;;;;;7316143;19;9147;-84
2023/10/30 05:18:03;;;;;;;;;;;11.00;99.90;;;;;;7316501;19;9577;-85
2023/10/30 05:20:34;;;;;;;;;;;10.90;99.90;;;;;;7322770;19;11274;-84
2023/10/30 05:23:03;;;;;;;;;;;10.70;99.90;;;;;;7320823;19;9607;-84
2023/10/30 05:25:32;;;;;;;;;;;10.60;99.90;;;;;;7316596;19;9242;-84
2023/10/30 05:28:01;;;;;;;;;;;10.60;99.90;;;;;;7318618;19;9468;-84
2023/10/30 05:30:30;;;;;;;;;;;10.60;99.90;;;;;;7317092;19;9400;-84
2023/10/30 05:32:59;;;;;;;;;;;10.60;99.90;;;;;;7318035;19;9498;-84
2023/10/30 05:35:28;;;;;;;;;;;10.60;99.90;;;;;;7314800;19;9330;-84
2023/10/30 05:37:59;;;;;;;;;;;10.60;99.90;;;;;;7318275;19;9254;-84
2023/10/30 05:40:29;;;;;;;;;;;10.60;99.90;;;;;;7314736;19;9299;-84
2023/10/30 05:42:57;;;;;;;;;;;10.50;99.90;;;;;;7312790;19;9592;-84
2023/10/30 05:45:26;;;;;;;;;;;10.50;99.90;;;;;;7316845;19;9405;-84
2023/10/30 05:47:58;;;;;;;;;;;10.60;99.90;;;;;;7316743;19;9705;-84
2023/10/30 05:50:27;;;;;;;;;;;10.60;99.90;;;;;;7316819;19;9184;-84
2023/10/30 05:52:59;;;;;;;;;;;10.60;99.90;;;;;;7319662;19;9459;-84
2023/10/30 05:55:28;;;;;;;;;;;10.60;99.90;;;;;;7315619;19;9234;-84
2023/10/30 05:57:57;;;;;;;;;;;10.60;99.90;;;;;;7315273;19;9551;-84
2023/10/30 06:00:26;;;;;;;;;;;10.60;99.90;;;;;;7315435;19;9200;-84
2023/10/30 06:02:55;;;;;;;;;;;10.60;99.90;;;;;;7316990;19;9238;-84
2023/10/30 06:05:25;;;;;;;;;;;10.60;99.90;;;;;;7317676;19;9317;-84
2023/10/30 06:07:54;;;;;;;;;;;10.50;99.90;;;;;;7319050;19;9172;-84
2023/10/30 06:10:25;;;;;;;;;;;10.50;99.90;;;;;;7317431;19;9455;-84
2023/10/30 06:12:54;;;;;;;;;;;10.40;99.90;;;;;;7318041;19;10154;-84
2023/10/30 06:15:23;;;;;;;;;;;10.30;99.90;;;;;;7317375;19;9514;-84
2023/10/30 06:17:52;;;;;;;;;;;10.30;99.90;;;;;;7318558;19;9240;-84
2023/10/30 06:20:22;;;;;;;;;;;10.20;99.90;;;;;;7319286;19;9325;-84
2023/10/30 06:22:52;;;;;;;;;;;10.20;99.90;;;;;;7318057;19;9488;-84
2023/10/30 06:25:21;;;;;;;;;;;10.20;99.90;;;;;;7316076;19;9299;-84
2023/10/30 06:27:53;;;;;;;;;;;10.10;99.90;;;;;;7318582;19;9246;-84
2023/10/30 06:30:22;;;;;;;;;;;10.10;99.90;;;;;;7318747;19;9284;-84
2023/10/30 06:32:50;;;;;;;;;;;10.10;99.90;;;;;;7315735;19;10092;-84
2023/10/30 06:35:19;;;;;;;;;;;10.10;99.90;;;;;;7318599;19;10322;-84
2023/10/30 06:37:48;;;;;;;;;;;10.10;99.90;;;;;;7317187;19;9571;-84
2023/10/30 06:40:17;;;;;;;;;;;10.20;99.90;;;;;;7317598;19;9412;-84
2023/10/30 06:42:47;;;;;;;;;;;10.30;99.90;;;;;;7317731;19;9355;-84
2023/10/30 06:45:18;;;;;;;;;;;10.40;99.90;;;;;;7319051;19;9209;-84
2023/10/30 06:47:47;;;;;;;;;;;10.40;99.90;;;;;;7317376;19;9253;-84
2023/10/30 06:50:16;;;;;;;;;;;10.40;99.90;;;;;;7317360;19;9488;-84
2023/10/30 06:52:45;;;;;;;;;;;10.40;99.90;;;;;;7318518;19;9197;-83
2023/10/30 06:55:14;;;;;;;;;;;10.40;99.90;;;;;;7317561;19;9620;-84
2023/10/30 06:57:43;;;;;;;;;;;10.40;99.90;;;;;;7315372;19;9211;-84
2023/10/30 07:00:14;;;;;;;;;;;10.40;99.90;;;;;;7316834;19;9214;-84
2023/10/30 07:02:45;;;;;;;;;;;10.50;99.90;;;;;;7316942;19;9262;-82
2023/10/30 07:05:15;;;;;;;;;;;10.70;99.90;;;;;;7316719;19;9711;-84
2023/10/30 07:07:44;;;;;;;;;;;10.80;99.90;;;;;;7316848;19;9273;-84
2023/10/30 07:10:13;;;;;;;;;;;10.90;99.90;;;;;;7314036;19;9205;-84
2023/10/30 07:12:42;;;;;;;;;;;10.90;99.90;;;;;;7313307;19;9349;-84
2023/10/30 07:15:12;;;;;;;;;;;11.00;99.90;;;;;;7318588;19;9584;-83
2023/10/30 07:17:41;;;;;;;;;;;11.20;99.90;;;;;;7320796;19;9140;-84
2023/10/30 07:20:13;;;;;;;;;;;11.30;99.90;;;;;;7318644;19;9566;-84
2023/10/30 07:22:42;;;;;;;;;;;11.60;99.90;;;;;;7323612;19;9532;-84
2023/10/30 07:25:11;;;;;;;;;;;12.10;99.90;;;;;;7323113;19;9031;-84
2023/10/30 07:27:40;;;;;;;;;;;12.70;99.90;;;;;;7323363;19;9235;-84
2023/10/30 07:30:10;;;;;;;;;;;13.10;99.90;;;;;;7324471;19;9105;-84
2023/10/30 07:32:39;;;;;;;;;;;13.60;99.90;;;;;;7320335;19;11440;-84
2023/10/30 07:35:11;;;;;;;;;;;13.90;99.90;;;;;;7321364;19;9230;-84
2023/10/30 07:37:40;;;;;;;;;;;14.10;99.90;;;;;;7322557;19;10144;-84
2023/10/30 07:40:11;;;;;;;;;;;14.30;99.90;;;;;;7324096;19;9511;-89
2023/10/30 07:42:40;;;;;;;;;;;13.90;99.90;;;;;;7316748;19;9299;-82
2023/10/30 07:45:09;;;;;;;;;;;13.50;99.90;;;;;;7320996;19;9380;-84
2023/10/30 07:47:38;;;;;;;;;;;13.30;99.90;;;;;;7317687;19;9266;-83
2023/10/30 07:50:09;;;;;;;;;;;13.10;99.90;;;;;;7320572;19;9206;-84
2023/10/30 07:52:40;;;;;;;;;;;13.10;99.90;;;;;;7322299;19;9285;-83
2023/10/30 07:55:10;;;;;;;;;;;12.90;99.90;;;;;;7320016;19;9231;-84
2023/10/30 07:57:39;;;;;;;;;;;12.80;99.90;;;;;;7320330;19;9248;-84
2023/10/30 08:00:11;;;;;;;;;;;12.80;99.90;;;;;;7323998;19;10273;-84
2023/10/30 08:02:40;;;;;;;;;;;12.80;99.90;;;;;;7324171;19;9443;-84
2023/10/30 08:05:10;;;;;;;;;;;12.80;99.90;;;;;;7323189;19;9305;-84
2023/10/30 08:07:41;;;;;;;;;;;12.80;99.90;;;;;;7324235;19;9269;-84
2023/10/30 08:10:12;;;;;;;;;;;12.80;99.90;;;;;;7321402;19;10298;-84
2023/10/30 08:12:41;;;;;;;;;;;12.80;99.90;;;;;;7323338;19;9260;-84
2023/10/30 08:15:11;;;;;;;;;;;12.80;99.90;;;;;;7318656;19;9336;-86
2023/10/30 08:17:40;;;;;;;;;;;12.90;99.90;;;;;;7316636;19;9238;-82
2023/10/30 08:20:11;;;;;;;;;;;12.90;99.90;;;;;;7321855;19;9349;-86
2023/10/30 08:22:42;;;;;;;;;;;12.90;99.90;;;;;;7322983;19;9635;-85
2023/10/30 08:25:11;;;;;;;;;;;13.10;99.90;;;;;;7316745;19;11550;-83
2023/10/30 08:27:40;;;;;;;;;;;13.00;99.90;;;;;;7314539;19;9917;-77
2023/10/30 08:30:10;;;;;;;;;;;13.10;99.90;;;;;;7315986;19;10340;-76
2023/10/30 08:32:41;;;;;;;;;;;13.10;99.90;;;;;;7313044;19;9265;-76
2023/10/30 08:35:10;;;;;;;;;;;13.10;99.90;;;;;;7316781;19;9218;-78
2023/10/30 08:37:43;;;;;;;;;;;13.10;99.90;;;;;;7313967;19;9751;-78
2023/10/30 08:40:14;;;;;;;;;;;13.20;99.90;;;;;;7320280;19;9260;-78
2023/10/30 08:42:42;;;;;;;;;;;13.20;99.90;;;;;;7321100;19;10716;-78
2023/10/30 08:45:12;;;;;;;;;;;13.10;99.90;;;;;;7319617;19;11375;-78
2023/10/30 08:47:41;;;;;;;;;;;13.20;99.90;;;;;;7318714;19;9510;-78
2023/10/30 08:50:11;;;;;;;;;;;13.40;99.90;;;;;;7300654;19;9383;-78
2023/10/30 08:52:43;;;;;;;;;;;13.40;99.90;;;;;;7310763;19;9240;-78
2023/10/30 08:55:12;;;;;;;;;;;13.50;99.90;;;;;;7315828;19;9481;-78
2023/10/30 08:57:41;;;;;;;;;;;13.50;99.90;;;;;;7304813;19;10795;-77
2023/10/30 09:00:11;;;;;;;;;;;13.50;99.90;;;;;;7320431;19;9495;-78
2023/10/30 09:02:40;;;;;;;;;;;13.60;99.90;;;;;;7321986;19;9475;-78
2023/10/30 09:05:10;;;;;;;;;;;13.80;99.90;;;;;;7314323;19;9277;-77
2023/10/30 09:07:39;;;;;;;;;;;13.60;99.90;;;;;;7300478;19;10687;-78
2023/10/30 09:10:11;;;;;;;;;;;13.60;99.90;;;;;;7295496;19;12085;-82
2023/10/30 09:12:40;;;;;;;;;;;13.60;99.90;;;;;;7299673;19;9355;-76
2023/10/30 09:15:13;;;;;;;;;;;13.60;99.90;;;;;;7302183;19;9478;-82
2023/10/30 09:17:42;;;;;;;;;;;13.70;99.90;;;;;;7318999;19;9261;-82
2023/10/30 09:20:12;;;;;;;;;;;13.70;99.90;;;;;;7296250;19;9503;-83
2023/10/30 09:22:41;;;;;;;;;;;13.70;99.90;;;;;;7272348;19;9310;-83
2023/10/30 09:25:13;;;;;;;;;;;13.70;99.90;;;;;;7299605;19;9538;-83
2023/10/30 09:27:43;;;;;;;;;;;13.80;99.90;;;;;;7301378;19;9486;-84
2023/10/30 09:30:13;;;;;;;;;;;13.90;99.90;;;;;;7297130;19;9419;-84
2023/10/30 09:32:42;;;;;;;;;;;14.10;99.90;;;;;;7299744;19;9546;-85
2023/10/30 09:35:11;;;;;;;;;;;14.10;99.90;;;;;;7317205;19;9193;-85
2023/10/30 09:37:40;;;;;;;;;;;14.10;99.90;;;;;;7312045;19;10811;-85
2023/10/30 09:40:13;;;;;;;;;;;14.20;99.90;;;;;;7317899;19;9482;-84
2023/10/30 09:42:52;;;;;;;;;;;14.30;99.90;;;;;;7316115;19;9185;-84
2023/10/30 09:45:23;;;;;;;;;;;14.40;99.90;;;;;;7318943;19;9129;-85
2023/10/30 09:47:54;;;;;;;;;;;14.50;99.90;;;;;;7315899;19;9490;-85
2023/10/30 09:50:25;;;;;;;;;;;14.60;99.90;;;;;;7317326;19;9543;-85
2023/10/30 09:52:56;;;;;;;;;;;14.60;99.90;;;;;;7319552;19;9511;-85
2023/10/30 09:55:29;;;;;;;;;;;14.70;99.90;;;;;;7315436;19;9249;-84
2023/10/30 09:57:58;;;;;;;;;;;14.70;99.90;;;;;;7318293;19;9308;-85
2023/10/30 10:00:27;;;;;;;;;;;14.70;99.90;;;;;;7315624;19;9318;-85
2023/10/30 10:02:56;;;;;;;;;;;14.70;99.90;;;;;;7313659;19;10346;-85
2023/10/30 10:05:25;;;;;;;;;;;14.70;99.90;;;;;;7318051;19;11176;-85
2023/10/30 10:07:54;;;;;;;;;;;14.70;99.90;;;;;;7320116;19;9266;-85
2023/10/30 10:10:24;;;;;;;;;;;14.70;99.90;;;;;;7318345;19;9319;-85
2023/10/30 10:12:59;;;;;;;;;;;14.70;99.90;;;;;;7316983;19;9256;-84
2023/10/30 10:15:28;;;;;;;;;;;14.70;99.90;;;;;;7316511;19;9650;-84
2023/10/30 10:17:57;;;;;;;;;;;14.70;99.90;;;;;;7317954;19;9359;-84
2023/10/30 10:20:27;;;;;;;;;;;14.50;99.90;;;;;;7310435;19;9180;-85
2023/10/30 10:22:56;;;;;;;;;;;14.50;99.90;;;;;;7314026;19;9217;-84
2023/10/30 10:25:25;;;;;;;;;;;14.40;99.90;;;;;;7318201;19;9378;-84
2023/10/30 10:27:57;;;;;;;;;;;14.40;99.90;;;;;;7316767;19;9470;-85
2023/10/30 10:30:26;;;;;;;;;;;14.40;99.90;;;;;;7318513;19;9243;-85
2023/10/30 10:32:53;;;;;;;;;;;14.40;99.90;;;;;;7315243;19;9246;-79
2023/10/30 10:35:23;;;;;;;;;;;14.40;99.90;;;;;;7308766;19;11522;-79
2023/10/30 10:38:08;;;;;;;;;;;14.40;99.90;;;;;;7317466;19;9249;-79
2023/10/30 10:40:37;;;;;;;;;;;14.30;99.90;;;;;;7317862;19;9371;-79
2023/10/30 10:43:09;;;;;;;;;;;14.30;99.90;;;;;;7316468;19;9561;-79
2023/10/30 10:45:39;;;;;;;;;;;14.20;99.90;;;;;;7316256;19;10421;-79
2023/10/30 10:48:09;;;;;;;;;;;14.30;99.90;;;;;;7313043;19;9230;-79
2023/10/30 10:50:38;;;;;;;;;;;14.30;99.90;;;;;;7328396;19;10406;-79
2023/10/30 10:53:08;;;;;;;;;;;14.40;99.90;;;;;;7332280;19;9178;-79
2023/10/30 10:55:44;;;;;;;;;;;14.60;99.90;;;;;;7315795;19;9290;-79
2023/10/30 10:58:18;;;;;;;;;;;14.70;99.90;;;;;;7298513;19;9392;-79
2023/10/30 11:00:49;;;;;;;;;;;14.70;99.90;;;;;;7328799;19;9461;-79
2023/10/30 11:03:19;;;;;;;;;;;14.80;99.90;;;;;;7330337;19;9182;-79
2023/10/30 11:05:52;;;;;;;;;;;14.90;99.90;;;;;;7325086;19;9157;-79
2023/10/30 11:08:40;;;;;;;;;;;14.90;99.90;;;;;;7329639;19;10441;-79
2023/10/30 11:11:17;;;;;;;;;;;14.90;99.90;;;;;;7330021;19;9253;-79
2023/10/30 11:14:05;;;;;;;;;;;14.90;99.90;;;;;;7323564;19;9269;-79
2023/10/30 11:16:43;;;;;;;;;;;15.00;99.90;;;;;;7328774;19;9539;-79
2023/10/30 11:19:13;;;;;;;;;;;15.10;99.90;;;;;;7326826;19;9361;-79
2023/10/30 11:21:43;;;;;;;;;;;15.20;99.90;;;;;;7322487;19;9135;-79
2023/10/30 11:24:12;;;;;;;;;;;15.10;99.90;;;;;;7330666;19;9124;-79
2023/10/30 11:26:43;;;;;;;;;;;15.20;99.90;;;;;;7328919;19;9175;-79
2023/10/30 11:29:18;;;;;;;;;;;15.20;99.90;;;;;;7327335;19;9250;-79
2023/10/30 11:32:06;;;;;;;;;;;15.10;99.90;;;;;;7327020;19;9425;-79
2023/10/30 11:34:37;;;;;;;;;;;15.10;99.90;;;;;;7329585;19;9260;-79
2023/10/30 11:37:10;;;;;;;;;;;15.00;99.90;;;;;;7330662;19;9246;-79
2023/10/30 11:39:40;;;;;;;;;;;15.00;99.90;;;;;;7301994;19;9337;-79
2023/10/30 11:42:26;;;;;;;;;;;15.00;99.90;;;;;;7327027;19;9162;-79
2023/10/30 11:45:21;;;;;;;;;;;15.10;99.90;;;;;;7325932;19;9253;-79
2023/10/30 11:47:57;;;;;;;;;;;15.00;99.90;;;;;;7329055;19;9524;-79
2023/10/30 11:50:29;;;;;;;;;;;15.10;99.90;;;;;;7325697;19;10787;-78
2023/10/30 11:53:03;;;;;;;;;;;15.20;99.90;;;;;;7326106;19;9596;-80
2023/10/30 11:55:32;;;;;;;;;;;15.30;99.90;;;;;;7324951;19;9119;-80
2023/10/30 11:58:03;;;;;;;;;;;15.50;99.90;;;;;;7321946;19;9281;-79
2023/10/30 12:00:35;;;;;;;;;;;15.70;99.90;;;;;;7320887;19;10326;-79
2023/10/30 12:03:04;;;;;;;;;;;15.90;99.90;;;;;;7319710;19;9328;-79
2023/10/30 12:05:33;;;;;;;;;;;16.10;99.90;;;;;;7320829;19;9539;-79
2023/10/30 12:08:04;;;;;;;;;;;16.00;99.90;;;;;;7322844;19;9363;-78
2023/10/30 12:10:33;;;;;;;;;;;15.90;99.90;;;;;;7319319;19;9272;-79
2023/10/30 12:13:02;;;;;;;;;;;15.90;99.90;;;;;;7321362;19;10718;-79
2023/10/30 12:15:34;;;;;;;;;;;15.80;99.90;;;;;;7310842;19;9299;-79
2023/10/30 12:18:05;;;;;;;;;;;15.50;99.90;;;;;;7320033;19;9606;-79
2023/10/30 12:20:35;;;;;;;;;;;15.50;99.90;;;;;;7320995;19;9167;-79
2023/10/30 12:23:04;;;;;;;;;;;15.40;99.90;;;;;;7320123;19;10454;-79
2023/10/30 12:25:32;;;;;;;;;;;15.30;99.90;;;;;;7322255;19;9641;-79
2023/10/30 12:28:03;;;;;;;;;;;15.30;99.90;;;;;;7319020;19;9459;-79
2023/10/30 12:30:41;;;;;;;;;;;15.30;99.90;;;;;;7320958;19;9115;-79
2023/10/30 12:33:13;;;;;;;;;;;15.40;99.90;;;;;;7321396;19;10454;-79
2023/10/30 12:35:44;;;;;;;;;;;15.30;99.90;;;;;;7320448;19;10634;-85
2023/10/30 12:38:16;;;;;;;;;;;15.40;99.90;;;;;;7321167;19;9351;-78
2023/10/30 12:40:47;;;;;;;;;;;15.30;99.90;;;;;;7319147;19;10319;-78
2023/10/30 12:43:16;;;;;;;;;;;15.30;99.90;;;;;;7321331;19;9139;-79
2023/10/30 12:45:48;;;;;;;;;;;15.30;99.90;;;;;;7319963;19;9408;-78
2023/10/30 12:48:17;;;;;;;;;;;15.40;99.90;;;;;;7312516;19;9130;-75
2023/10/30 12:50:46;;;;;;;;;;;15.40;99.90;;;;;;7316963;19;9340;-78
2023/10/30 12:53:14;;;;;;;;;;;15.30;99.90;;;;;;7319188;19;11051;-78
2023/10/30 12:55:43;;;;;;;;;;;15.20;99.90;;;;;;7318222;19;9307;-78
2023/10/30 12:58:12;;;;;;;;;;;15.10;99.90;;;;;;7319018;19;9262;-79
2023/10/30 13:00:41;;;;;;;;;;;15.20;99.90;;;;;;7320354;19;9539;-79
2023/10/30 13:03:12;;;;;;;;;;;15.10;99.90;;;;;;7319898;19;9479;-78
2023/10/30 13:05:41;;;;;;;;;;;15.10;99.90;;;;;;7318209;19;9792;-76
2023/10/30 13:08:10;;;;;;;;;;;15.10;99.90;;;;;;7318718;19;9242;-77
2023/10/30 13:10:39;;;;;;;;;;;15.10;99.90;;;;;;7319851;19;9352;-78
2023/10/30 13:13:09;;;;;;;;;;;15.10;99.90;;;;;;7317629;19;9186;-78
2023/10/30 13:15:39;;;;;;;;;;;15.20;99.90;;;;;;7317959;19;9457;-78
2023/10/30 13:18:08;;;;;;;;;;;15.20;99.90;;;;;;7313655;19;9512;-79
2023/10/30 13:20:39;;;;;;;;;;;15.10;99.90;;;;;;7320040;19;9991;-76
2023/10/30 13:23:08;;;;;;;;;;;15.10;99.90;;;;;;7314227;19;9366;-80
2023/10/30 13:25:37;;;;;;;;;;;15.10;99.90;;;;;;7319993;19;9479;-81
2023/10/30 13:28:08;;;;;;;;;;;15.10;99.90;;;;;;7304917;19;10661;-80
2023/10/30 13:30:36;;;;;;;;;;;15.10;99.90;;;;;;7317337;19;9234;-80
2023/10/30 13:33:05;;;;;;;;;;;15.00;99.90;;;;;;7315163;19;9198;-80
2023/10/30 13:35:34;;;;;;;;;;;15.00;99.90;;;;;;7308398;19;9620;-80
2023/10/30 13:38:06;;;;;;;;;;;15.00;99.90;;;;;;7316956;19;9236;-81
2023/10/30 13:40:34;;;;;;;;;;;15.00;99.90;;;;;;7316710;19;9450;-81
2023/10/30 13:43:03;;;;;;;;;;;15.00;99.90;;;;;;7311125;19;9738;-80
2023/10/30 13:45:32;;;;;;;;;;;15.10;99.90;;;;;;7315810;19;9167;-78
2023/10/30 13:48:01;;;;;;;;;;;15.10;99.90;;;;;;7318518;19;9352;-80
2023/10/30 13:50:30;;;;;;;;;;;15.10;99.90;;;;;;7308137;19;9406;-81
2023/10/30 13:52:59;;;;;;;;;;;15.00;99.90;;;;;;7310432;19;9413;-80
2023/10/30 13:55:30;;;;;;;;;;;15.10;99.90;;;;;;7310924;19;9274;-79
2023/10/30 13:57:59;;;;;;;;;;;15.00;99.90;;;;;;7317378;19;9124;-80
2023/10/30 14:00:30;;;;;;;;;;;14.90;99.90;;;;;;7317440;19;10123;-80
2023/10/30 14:02:59;;;;;;;;;;;14.80;99.90;;;;;;7314244;19;10703;-80
2023/10/30 14:05:28;;;;;;;;;;;14.80;99.90;;;;;;7310704;19;9250;-80
2023/10/30 14:07:57;;;;;;;;;;;14.70;99.90;;;;;;7311785;19;9337;-80
2023/10/30 14:10:26;;;;;;;;;;;14.70;99.90;;;;;;7312623;19;9271;-80
2023/10/30 14:12:59;;;;;;;;;;;14.70;99.90;;;;;;7321796;19;9477;-80
2023/10/30 14:15:28;;;;;;;;;;;14.60;99.90;;;;;;7283182;19;9445;-80
2023/10/30 14:17:57;;;;;;;;;;;14.70;99.90;;;;;;7314484;19;9636;-80
2023/10/30 14:20:26;;;;;;;;;;;14.80;99.90;;;;;;7314935;19;9198;-79
2023/10/30 14:22:55;;;;;;;;;;;14.90;99.90;;;;;;7308013;19;9512;-80
2023/10/30 14:25:24;;;;;;;;;;;14.80;99.90;;;;;;7301236;19;9398;-74
2023/10/30 14:27:53;;;;;;;;;;;14.80;99.90;;;;;;7309749;19;9452;-80
2023/10/30 14:30:25;;;;;;;;;;;14.70;99.90;;;;;;7297533;19;9482;-79
2023/10/30 14:32:54;;;;;;;;;;;14.70;99.90;;;;;;7312858;19;9332;-76
2023/10/30 14:35:23;;;;;;;;;;;14.60;99.90;;;;;;7312319;19;9246;-77
2023/10/30 14:37:52;;;;;;;;;;;14.50;99.90;;;;;;7316838;19;9377;-77
2023/10/30 14:40:21;;;;;;;;;;;14.50;99.90;;;;;;7313746;19;9241;-79
2023/10/30 14:42:50;;;;;;;;;;;14.50;99.90;;;;;;7303509;19;9578;-80
2023/10/30 14:45:19;;;;;;;;;;;14.40;99.90;;;;;;7317352;19;9449;-79